createdAt,value
2022-10-02T00:00:24.643Z,12.8
2022-10-02T00:01:24.733Z,12.7
2022-10-02T00:02:24.660Z,12.7
2022-10-02T00:03:24.654Z,12.8
2022-10-02T00:04:24.693Z,12.7
2022-10-02T00:05:24.644Z,12.9
2022-10-02T00:06:24.649Z,12.8
2022-10-02T00:07:24.645Z,12.7
2022-10-02T00:08:24.669Z,12.7
2022-10-02T00:09:24.653Z,12.7
2022-10-02T00:10:24.647Z,12.7
2022-10-02T00:11:24.658Z,12.7
2022-10-02T00:12:24.677Z,12.7
2022-10-02T00:13:24.730Z,12.7
2022-10-02T00:14:24.642Z,12.7
2022-10-02T00:15:24.654Z,12.7
2022-10-02T00:16:24.722Z,12.7
2022-10-02T00:17:24.651Z,12.7
2022-10-02T00:18:24.675Z,12.7
2022-10-02T00:19:24.644Z,12.9
2022-10-02T00:20:24.648Z,12.9
2022-10-02T00:21:24.654Z,12.9
2022-10-02T00:22:24.644Z,12.9
2022-10-02T00:23:24.649Z,12.7
2022-10-02T00:24:24.655Z,12.9
2022-10-02T00:25:24.651Z,12.8
2022-10-02T00:26:24.677Z,12.8
2022-10-02T00:27:24.654Z,12.9
2022-10-02T00:28:24.677Z,12.9
2022-10-02T00:29:24.650Z,13
2022-10-02T00:30:24.655Z,13
2022-10-02T00:31:24.760Z,13
2022-10-02T00:32:24.656Z,13
2022-10-02T00:33:24.715Z,12.9
2022-10-02T00:34:24.664Z,12.9
2022-10-02T00:35:24.649Z,12.8
2022-10-02T00:36:24.653Z,12.8
2022-10-02T00:38:24.657Z,12.8
2022-10-02T00:39:24.650Z,12.8
2022-10-02T00:40:24.686Z,12.9
2022-10-02T00:41:24.662Z,12.8
2022-10-02T00:42:24.661Z,12.8
2022-10-02T00:43:24.674Z,12.8
2022-10-02T00:44:24.659Z,12.8
2022-10-02T00:45:24.656Z,12.8
2022-10-02T00:46:24.658Z,12.9
2022-10-02T00:47:24.665Z,13
2022-10-02T00:48:24.659Z,12.8
2022-10-02T00:49:24.658Z,12.9
2022-10-02T00:50:24.663Z,12.9
2022-10-02T00:51:24.659Z,12.8
2022-10-02T00:52:24.661Z,12.9
2022-10-02T00:53:24.654Z,12.8
2022-10-02T00:54:24.663Z,13
2022-10-02T00:55:24.746Z,12.9
2022-10-02T00:56:24.658Z,13
2022-10-02T00:57:24.664Z,13.1
2022-10-02T00:58:24.653Z,13.1
2022-10-02T00:59:24.656Z,13.2
2022-10-02T01:00:24.666Z,13.1
2022-10-02T01:01:24.735Z,13.1
2022-10-02T01:02:24.765Z,13.2
2022-10-02T01:03:24.651Z,13.2
2022-10-02T01:04:24.668Z,13.2
2022-10-02T01:05:24.662Z,13.3
2022-10-02T01:06:24.665Z,13.4
2022-10-02T01:07:24.661Z,13.4
2022-10-02T01:08:24.663Z,13.4
2022-10-02T01:09:24.655Z,13.4
2022-10-02T01:10:24.669Z,13.6
2022-10-02T01:11:24.671Z,13.5
2022-10-02T01:12:24.663Z,13.6
2022-10-02T01:13:24.669Z,13.5
2022-10-02T01:14:24.692Z,13.6
2022-10-02T01:15:24.665Z,13.6
2022-10-02T01:16:24.706Z,13.7
2022-10-02T01:17:24.671Z,13.6
2022-10-02T01:18:24.670Z,13.6
2022-10-02T01:19:24.661Z,13.6
2022-10-02T01:20:24.726Z,13.6
2022-10-02T01:21:24.666Z,13.6
2022-10-02T01:22:24.662Z,13.6
2022-10-02T01:23:24.669Z,13.8
2022-10-02T01:24:24.674Z,13.9
2022-10-02T01:25:24.672Z,13.8
2022-10-02T01:26:24.669Z,13.9
2022-10-02T01:27:24.668Z,13.9
2022-10-02T01:28:24.731Z,13.8
2022-10-02T01:29:24.666Z,13.8
2022-10-02T01:30:24.674Z,13.9
2022-10-02T01:31:24.762Z,14
2022-10-02T01:32:24.669Z,14.1
2022-10-02T01:33:24.665Z,14.1
2022-10-02T01:34:24.666Z,14
2022-10-02T01:35:24.676Z,14
2022-10-02T01:36:24.675Z,14.1
2022-10-02T01:37:24.684Z,14.1
2022-10-02T01:38:24.672Z,14
2022-10-02T01:39:24.666Z,14
2022-10-02T01:40:24.668Z,13.9
2022-10-02T01:41:24.664Z,14
2022-10-02T01:42:24.666Z,14
2022-10-02T01:43:24.666Z,13.8
2022-10-02T01:45:24.793Z,13.9
2022-10-02T01:46:24.674Z,13.9
2022-10-02T01:47:24.667Z,13.9
2022-10-02T01:48:24.670Z,14
2022-10-02T01:49:24.674Z,14
2022-10-02T01:50:24.675Z,13.9
2022-10-02T01:51:24.674Z,14
2022-10-02T01:52:24.674Z,14
2022-10-02T01:53:24.668Z,14
2022-10-02T01:54:24.686Z,14
2022-10-02T01:55:24.676Z,14
2022-10-02T01:56:24.674Z,14
2022-10-02T01:57:24.673Z,14.1
2022-10-02T01:58:24.676Z,14.1
2022-10-02T01:59:24.677Z,14.2
2022-10-02T02:01:24.784Z,14.1
2022-10-02T02:02:24.717Z,14.1
2022-10-02T02:03:24.671Z,14.1
2022-10-02T02:04:24.678Z,14.1
2022-10-02T02:05:24.677Z,14.2
2022-10-02T02:06:24.671Z,14.2
2022-10-02T02:07:24.682Z,14.2
2022-10-02T02:08:24.678Z,14.3
2022-10-02T02:09:24.676Z,14.2
2022-10-02T02:10:24.675Z,14.1
2022-10-02T02:11:24.682Z,14
2022-10-02T02:12:24.680Z,14
2022-10-02T02:13:24.701Z,14
2022-10-02T02:14:24.668Z,14
2022-10-02T02:15:24.695Z,14.2
2022-10-02T02:16:24.809Z,14.2
2022-10-02T02:17:24.680Z,14.2
2022-10-02T02:18:24.677Z,14.3
2022-10-02T02:19:24.699Z,14.1
2022-10-02T02:20:24.678Z,14.1
2022-10-02T02:22:24.684Z,14.1
2022-10-02T02:23:24.687Z,14.1
2022-10-02T02:24:24.678Z,14.1
2022-10-02T02:25:24.690Z,14
2022-10-02T02:26:24.692Z,13.9
2022-10-02T02:27:24.682Z,14
2022-10-02T02:28:24.788Z,14
2022-10-02T02:29:24.684Z,13.9
2022-10-02T02:30:24.689Z,14
2022-10-02T02:31:24.731Z,13.8
2022-10-02T02:32:24.676Z,13.9
2022-10-02T02:33:24.684Z,13.7
2022-10-02T02:34:24.683Z,13.8
2022-10-02T02:35:24.742Z,13.7
2022-10-02T02:36:24.687Z,13.7
2022-10-02T02:37:24.688Z,13.7
2022-10-02T02:38:24.681Z,13.7
2022-10-02T02:39:24.685Z,13.7
2022-10-02T02:40:24.686Z,13.7
2022-10-02T02:41:24.707Z,13.7
2022-10-02T02:42:26.268Z,13.8
2022-10-02T02:43:24.678Z,13.7
2022-10-02T02:44:24.684Z,13.7
2022-10-02T02:45:24.731Z,13.7
2022-10-02T02:46:24.684Z,13.9
2022-10-02T02:47:24.716Z,13.7
2022-10-02T02:48:24.682Z,13.8
2022-10-02T02:49:24.692Z,13.6
2022-10-02T02:50:24.687Z,13.7
2022-10-02T02:51:24.701Z,13.7
2022-10-02T02:52:24.695Z,13.7
2022-10-02T02:53:24.691Z,13.7
2022-10-02T02:54:24.689Z,13.8
2022-10-02T02:55:24.695Z,13.7
2022-10-02T02:56:24.693Z,13.6
2022-10-02T02:57:24.692Z,13.5
2022-10-02T02:58:24.695Z,13.5
2022-10-02T02:59:24.689Z,13.7
2022-10-02T03:00:24.693Z,13.7
2022-10-02T03:01:24.794Z,13.7
2022-10-02T03:02:24.896Z,13.8
2022-10-02T03:03:24.687Z,13.8
2022-10-02T03:04:24.688Z,13.8
2022-10-02T03:05:24.691Z,13.8
2022-10-02T03:06:24.686Z,13.8
2022-10-02T03:07:24.700Z,13.8
2022-10-02T03:08:24.686Z,13.8
2022-10-02T03:09:24.695Z,13.8
2022-10-02T03:10:24.699Z,13.8
2022-10-02T03:11:24.694Z,13.7
2022-10-02T03:12:24.689Z,13.7
2022-10-02T03:13:24.700Z,13.8
2022-10-02T03:14:24.703Z,13.9
2022-10-02T03:15:24.694Z,13.9
2022-10-02T03:16:24.692Z,13.8
2022-10-02T03:17:24.705Z,13.9
2022-10-02T03:18:24.722Z,14
2022-10-02T03:19:24.699Z,13.9
2022-10-02T03:20:24.696Z,13.9
2022-10-02T03:21:24.705Z,13.9
2022-10-02T03:22:24.690Z,13.8
2022-10-02T03:23:24.696Z,13.8
2022-10-02T03:24:24.695Z,13.9
2022-10-02T03:25:24.697Z,13.8
2022-10-02T03:26:24.710Z,13.9
2022-10-02T03:27:24.697Z,13.9
2022-10-02T03:28:50.519Z,13.9
2022-10-02T03:29:24.694Z,13.8
2022-10-02T03:30:24.695Z,13.9
2022-10-02T03:31:24.775Z,14
2022-10-02T03:32:24.718Z,14
2022-10-02T03:33:24.702Z,13.8
2022-10-02T03:34:24.715Z,13.8
2022-10-02T03:35:24.700Z,13.8
2022-10-02T03:36:24.725Z,13.9
2022-10-02T03:37:24.691Z,13.8
2022-10-02T03:38:24.696Z,13.9
2022-10-02T03:39:26.122Z,13.9
2022-10-02T03:40:24.697Z,13.9
2022-10-02T03:41:24.708Z,13.9
2022-10-02T03:42:24.702Z,13.9
2022-10-02T03:43:24.701Z,13.9
2022-10-02T03:45:49.600Z,14
2022-10-02T03:46:24.754Z,13.9
2022-10-02T03:47:24.696Z,14
2022-10-02T03:48:24.694Z,13.9
2022-10-02T03:49:24.892Z,14
2022-10-02T03:50:24.709Z,14.1
2022-10-02T03:51:24.702Z,14.1
2022-10-02T03:52:24.704Z,14
2022-10-02T03:53:24.710Z,13.9
2022-10-02T03:54:24.718Z,13.9
2022-10-02T03:55:24.699Z,13.9
2022-10-02T03:56:24.705Z,13.9
2022-10-02T03:57:24.704Z,13.9
2022-10-02T03:58:24.713Z,14
2022-10-02T03:59:24.705Z,14.1
2022-10-02T04:00:24.701Z,14
2022-10-02T04:01:24.757Z,14.1
2022-10-02T04:02:24.710Z,14
2022-10-02T04:03:24.725Z,14
2022-10-02T04:04:24.709Z,14.2
2022-10-02T04:05:24.705Z,14.1
2022-10-02T04:06:24.718Z,14
2022-10-02T04:07:24.733Z,13.9
2022-10-02T04:08:24.721Z,14
2022-10-02T04:09:24.712Z,14.1
2022-10-02T04:10:24.714Z,14
2022-10-02T04:11:24.736Z,14.2
2022-10-02T04:12:24.716Z,14.1
2022-10-02T04:13:24.711Z,14.1
2022-10-02T04:14:24.717Z,14.1
2022-10-02T04:15:24.710Z,14.3
2022-10-02T04:16:24.893Z,14.2
2022-10-02T04:17:24.720Z,14.3
2022-10-02T04:18:24.716Z,14.2
2022-10-02T04:19:24.716Z,14.3
2022-10-02T04:20:24.742Z,14.2
2022-10-02T04:21:24.705Z,14.2
2022-10-02T04:22:24.707Z,14.2
2022-10-02T04:23:24.707Z,14.3
2022-10-02T04:24:24.716Z,14.2
2022-10-02T04:25:24.709Z,14.2
2022-10-02T04:26:24.717Z,14.2
2022-10-02T04:27:24.715Z,14.4
2022-10-02T04:28:24.795Z,14.3
2022-10-02T04:29:24.714Z,14.2
2022-10-02T04:30:24.709Z,14.3
2022-10-02T04:31:24.760Z,14.2
2022-10-02T04:32:24.716Z,14.3
2022-10-02T04:33:24.716Z,14.3
2022-10-02T04:34:24.714Z,14.2
2022-10-02T04:35:24.721Z,14.1
2022-10-02T04:36:24.715Z,14.1
2022-10-02T04:37:24.716Z,14.2
2022-10-02T04:38:24.715Z,14.2
2022-10-02T04:39:24.712Z,14.2
2022-10-02T04:40:24.715Z,14.2
2022-10-02T04:41:24.720Z,14.3
2022-10-02T04:42:24.717Z,14.4
2022-10-02T04:43:24.724Z,14.3
2022-10-02T04:44:24.725Z,14.2
2022-10-02T04:45:24.765Z,14.2
2022-10-02T04:46:24.724Z,14.3
2022-10-02T04:47:24.720Z,14.3
2022-10-02T04:48:24.720Z,14.5
2022-10-02T04:49:24.718Z,14.5
2022-10-02T04:50:24.718Z,14.4
2022-10-02T04:51:24.748Z,14.3
2022-10-02T04:52:24.723Z,14.4
2022-10-02T04:53:24.727Z,14.3
2022-10-02T04:54:24.722Z,14.3
2022-10-02T04:55:24.725Z,14.3
2022-10-02T04:56:24.720Z,14.2
2022-10-02T04:57:24.720Z,14.2
2022-10-02T04:58:24.726Z,14.2
2022-10-02T04:59:24.723Z,14.2
2022-10-02T05:00:24.726Z,14.4
2022-10-02T05:01:24.725Z,14.5
2022-10-02T05:02:24.843Z,14.5
2022-10-02T05:03:24.723Z,14.4
2022-10-02T05:05:24.726Z,14.4
2022-10-02T05:06:24.716Z,14.5
2022-10-02T05:07:24.721Z,14.4
2022-10-02T05:08:24.740Z,14.3
2022-10-02T05:09:28.337Z,14.3
2022-10-02T05:10:24.742Z,14.4
2022-10-02T05:11:24.723Z,14.4
2022-10-02T05:12:24.725Z,14.4
2022-10-02T05:13:24.729Z,14.3
2022-10-02T05:14:24.726Z,14.3
2022-10-02T05:15:24.738Z,14.2
2022-10-02T05:16:24.886Z,14.2
2022-10-02T05:17:24.719Z,14.2
2022-10-02T05:18:24.729Z,14.2
2022-10-02T05:19:24.723Z,14.4
2022-10-02T05:20:24.747Z,14.3
2022-10-02T05:21:24.720Z,14.3
2022-10-02T05:22:24.752Z,14.3
2022-10-02T05:23:24.741Z,14.2
2022-10-02T05:24:24.724Z,14.2
2022-10-02T05:25:24.737Z,14.2
2022-10-02T05:26:24.725Z,14.2
2022-10-02T05:27:24.730Z,14.3
2022-10-02T05:28:24.817Z,14.2
2022-10-02T05:29:24.741Z,14.2
2022-10-02T05:30:24.731Z,14.1
2022-10-02T05:31:24.808Z,14.1
2022-10-02T05:32:24.729Z,14.2
2022-10-02T05:33:24.740Z,14.2
2022-10-02T05:34:24.732Z,14.2
2022-10-02T05:35:24.735Z,14.2
2022-10-02T05:36:24.729Z,14.3
2022-10-02T05:37:24.725Z,14.2
2022-10-02T05:38:24.733Z,14
2022-10-02T05:39:24.732Z,14.1
2022-10-02T05:40:24.730Z,14.1
2022-10-02T05:41:24.727Z,14.3
2022-10-02T05:42:24.732Z,14.3
2022-10-02T05:43:24.736Z,14.3
2022-10-02T05:44:24.734Z,14.2
2022-10-02T05:45:24.745Z,14.3
2022-10-02T05:46:24.862Z,14.4
2022-10-02T05:47:24.731Z,14.4
2022-10-02T05:48:24.735Z,14.4
2022-10-02T05:49:24.735Z,14.3
2022-10-02T05:50:24.735Z,14.3
2022-10-02T05:51:24.727Z,14.3
2022-10-02T05:52:24.733Z,14.1
2022-10-02T05:53:24.763Z,14.1
2022-10-02T05:54:24.741Z,14.1
2022-10-02T05:55:24.741Z,14.1
2022-10-02T05:56:24.732Z,14.2
2022-10-02T05:57:24.741Z,14.1
2022-10-02T05:58:24.736Z,14.1
2022-10-02T05:59:24.743Z,14.2
2022-10-02T06:00:24.741Z,14.2
2022-10-02T06:01:24.797Z,14.3
2022-10-02T06:02:24.843Z,14.2
2022-10-02T06:03:24.739Z,14.3
2022-10-02T06:04:24.740Z,14.3
2022-10-02T06:05:24.743Z,14.4
2022-10-02T06:06:24.744Z,14.3
2022-10-02T06:07:24.734Z,14.3
2022-10-02T06:08:24.743Z,14.4
2022-10-02T06:09:24.736Z,14.3
2022-10-02T06:10:24.755Z,14.2
2022-10-02T06:11:24.739Z,14.2
2022-10-02T06:12:24.740Z,14.4
2022-10-02T06:13:24.746Z,14.2
2022-10-02T06:14:24.758Z,14.3
2022-10-02T06:15:24.823Z,14.3
2022-10-02T06:16:24.858Z,14.3
2022-10-02T06:17:24.750Z,14.4
2022-10-02T06:18:24.749Z,14.5
2022-10-02T06:19:24.748Z,14.4
2022-10-02T06:20:24.748Z,14.4
2022-10-02T06:21:24.749Z,14.4
2022-10-02T06:22:24.735Z,14.5
2022-10-02T06:23:24.743Z,14.5
2022-10-02T06:24:24.767Z,14.5
2022-10-02T06:25:24.743Z,14.5
2022-10-02T06:26:24.746Z,14.7
2022-10-02T06:27:24.749Z,14.7
2022-10-02T06:28:24.759Z,14.6
2022-10-02T06:29:27.235Z,14.7
2022-10-02T06:30:24.737Z,14.8
2022-10-02T06:31:24.807Z,14.6
2022-10-02T06:32:24.743Z,14.6
2022-10-02T06:33:24.750Z,14.6
2022-10-02T06:34:24.738Z,14.6
2022-10-02T06:35:24.749Z,14.5
2022-10-02T06:36:24.742Z,14.6
2022-10-02T06:37:24.744Z,14.5
2022-10-02T06:38:24.748Z,14.5
2022-10-02T06:39:24.752Z,14.6
2022-10-02T06:40:24.798Z,14.7
2022-10-02T06:41:24.750Z,14.7
2022-10-02T06:42:24.745Z,14.6
2022-10-02T06:43:24.741Z,14.5
2022-10-02T06:44:24.749Z,14.7
2022-10-02T06:45:24.806Z,14.6
2022-10-02T06:46:24.760Z,14.5
2022-10-02T06:47:24.749Z,14.5
2022-10-02T06:48:24.755Z,14.6
2022-10-02T06:49:24.747Z,14.7
2022-10-02T06:50:24.797Z,14.6
2022-10-02T06:51:24.747Z,14.6
2022-10-02T06:52:24.753Z,14.7
2022-10-02T06:53:24.759Z,14.7
2022-10-02T06:54:24.754Z,14.8
2022-10-02T06:55:24.772Z,14.7
2022-10-02T06:56:24.758Z,14.8
2022-10-02T06:57:24.760Z,14.7
2022-10-02T06:58:24.759Z,14.7
2022-10-02T06:59:24.758Z,14.7
2022-10-02T07:00:24.754Z,14.8
2022-10-02T07:01:24.860Z,14.8
2022-10-02T07:02:24.771Z,14.8
2022-10-02T07:03:24.760Z,14.8
2022-10-02T07:04:24.751Z,14.8
2022-10-02T07:05:24.757Z,14.8
2022-10-02T07:06:24.759Z,14.8
2022-10-02T07:07:24.758Z,14.8
2022-10-02T07:08:25.155Z,14.9
2022-10-02T07:09:24.753Z,14.9
2022-10-02T07:10:24.754Z,15
2022-10-02T07:11:24.753Z,15
2022-10-02T07:12:24.763Z,15
2022-10-02T07:13:24.761Z,15
2022-10-02T07:15:24.753Z,15.1
2022-10-02T07:16:24.910Z,15.2
2022-10-02T07:17:24.752Z,15.1
2022-10-02T07:18:24.759Z,15
2022-10-02T07:19:24.761Z,15
2022-10-02T07:20:24.758Z,15.1
2022-10-02T07:21:24.759Z,15.1
2022-10-02T07:22:43.932Z,15.2
2022-10-02T07:23:24.764Z,15.2
2022-10-02T07:24:24.766Z,15.2
2022-10-02T07:25:24.776Z,15.3
2022-10-02T07:26:24.784Z,15.2
2022-10-02T07:27:24.766Z,15.2
2022-10-02T07:28:24.884Z,15.3
2022-10-02T07:29:24.763Z,15.2
2022-10-02T07:30:24.765Z,15.3
2022-10-02T07:31:24.795Z,15.3
2022-10-02T07:32:24.766Z,15.3
2022-10-02T07:33:29.805Z,15.4
2022-10-02T07:34:24.762Z,15.4
2022-10-02T07:35:24.765Z,15.3
2022-10-02T07:36:24.761Z,15.3
2022-10-02T07:37:24.769Z,15.3
2022-10-02T07:38:24.762Z,15.4
2022-10-02T07:39:24.766Z,15.4
2022-10-02T07:40:24.766Z,15.4
2022-10-02T07:41:24.773Z,15.4
2022-10-02T07:42:24.839Z,15.5
2022-10-02T07:43:24.771Z,15.5
2022-10-02T07:44:24.773Z,15.4
2022-10-02T07:45:24.811Z,15.5
2022-10-02T07:46:24.772Z,15.5
2022-10-02T07:47:24.769Z,15.5
2022-10-02T07:48:24.783Z,15.7
2022-10-02T07:49:24.768Z,15.7
2022-10-02T07:50:24.772Z,15.6
2022-10-02T07:51:24.772Z,15.6
2022-10-02T07:52:24.775Z,15.5
2022-10-02T07:53:24.783Z,15.5
2022-10-02T07:54:24.762Z,15.4
2022-10-02T07:55:24.772Z,15.4
2022-10-02T07:56:24.769Z,15.5
2022-10-02T07:57:24.803Z,15.5
2022-10-02T07:58:24.776Z,15.5
2022-10-02T07:59:24.769Z,15.6
2022-10-02T08:00:24.772Z,15.6
2022-10-02T08:01:24.768Z,15.6
2022-10-02T08:02:24.791Z,15.7
2022-10-02T08:03:24.833Z,15.8
2022-10-02T08:04:24.767Z,15.6
2022-10-02T08:05:24.769Z,15.6
2022-10-02T08:06:24.770Z,15.7
2022-10-02T08:07:24.781Z,15.7
2022-10-02T08:09:24.803Z,15.7
2022-10-02T08:10:24.776Z,15.7
2022-10-02T08:11:24.772Z,15.9
2022-10-02T08:12:24.782Z,15.9
2022-10-02T08:13:24.776Z,15.9
2022-10-02T08:14:24.771Z,15.9
2022-10-02T08:15:24.771Z,15.9
2022-10-02T08:16:24.819Z,15.9
2022-10-02T08:17:24.773Z,16
2022-10-02T08:18:40.291Z,16
2022-10-02T08:19:24.774Z,16.1
2022-10-02T08:20:29.146Z,16.1
2022-10-02T08:21:24.774Z,16.1
2022-10-02T08:22:24.777Z,16.2
2022-10-02T08:23:24.779Z,16.1
2022-10-02T08:24:24.778Z,16.3
2022-10-02T08:25:24.775Z,16.1
2022-10-02T08:26:24.781Z,16
2022-10-02T08:27:24.783Z,16.1
2022-10-02T08:28:24.859Z,16
2022-10-02T08:29:24.777Z,16.1
2022-10-02T08:30:24.772Z,16.2
2022-10-02T08:31:24.853Z,16.2
2022-10-02T08:32:24.780Z,16.3
2022-10-02T08:33:24.787Z,16.3
2022-10-02T08:34:24.775Z,16.3
2022-10-02T08:35:24.784Z,16.3
2022-10-02T08:36:24.781Z,16.5
2022-10-02T08:37:24.781Z,16.5
2022-10-02T08:38:24.781Z,16.4
2022-10-02T08:39:24.787Z,16.4
2022-10-02T08:40:24.781Z,16.5
2022-10-02T08:41:24.782Z,16.5
2022-10-02T08:42:24.789Z,16.6
2022-10-02T08:43:24.782Z,16.6
2022-10-02T08:44:24.782Z,16.6
2022-10-02T08:45:24.820Z,16.7
2022-10-02T08:46:24.786Z,16.8
2022-10-02T08:48:24.789Z,16.8
2022-10-02T08:49:24.783Z,16.8
2022-10-02T08:50:24.779Z,16.9
2022-10-02T08:51:24.790Z,16.8
2022-10-02T08:52:24.780Z,16.8
2022-10-02T08:53:24.781Z,16.8
2022-10-02T08:54:24.809Z,16.8
2022-10-02T08:55:24.784Z,16.6
2022-10-02T08:56:24.793Z,16.6
2022-10-02T08:57:24.794Z,16.5
2022-10-02T08:58:24.792Z,16.5
2022-10-02T08:59:24.810Z,16.4
2022-10-02T09:00:24.790Z,16.5
2022-10-02T09:01:24.854Z,16.5
2022-10-02T09:02:24.832Z,16.7
2022-10-02T09:03:24.797Z,16.8
2022-10-02T09:04:24.786Z,16.8
2022-10-02T09:05:24.793Z,16.9
2022-10-02T09:06:24.791Z,17
2022-10-02T09:07:28.095Z,17
2022-10-02T09:09:24.793Z,16.8
2022-10-02T09:10:24.786Z,16.8
2022-10-02T09:11:24.800Z,16.8
2022-10-02T09:12:24.807Z,16.8
2022-10-02T09:13:24.790Z,16.7
2022-10-02T09:14:24.795Z,16.5
2022-10-02T09:15:24.789Z,16.6
2022-10-02T09:16:24.874Z,16.6
2022-10-02T09:17:24.786Z,16.5
2022-10-02T09:18:24.806Z,16.6
2022-10-02T09:19:24.800Z,16.7
2022-10-02T09:20:24.796Z,16.7
2022-10-02T09:21:24.804Z,16.7
2022-10-02T09:22:24.800Z,16.7
2022-10-02T09:23:24.796Z,16.7
2022-10-02T09:24:24.799Z,16.7
2022-10-02T09:25:24.793Z,16.5
2022-10-02T09:26:24.802Z,16.5
2022-10-02T09:27:24.802Z,16.7
2022-10-02T09:28:24.875Z,16.6
2022-10-02T09:29:24.792Z,16.7
2022-10-02T09:30:24.854Z,16.9
2022-10-02T09:31:24.890Z,17
2022-10-02T09:32:24.803Z,17
2022-10-02T09:33:24.806Z,17
2022-10-02T09:34:24.802Z,17.2
2022-10-02T09:35:24.795Z,17
2022-10-02T09:37:24.836Z,16.9
2022-10-02T09:38:24.803Z,16.8
2022-10-02T09:39:24.804Z,16.7
2022-10-02T09:40:24.802Z,16.6
2022-10-02T09:41:24.802Z,16.6
2022-10-02T09:42:24.797Z,16.4
2022-10-02T09:43:24.797Z,16.5
2022-10-02T09:44:24.805Z,16.6
2022-10-02T09:45:24.868Z,16.7
2022-10-02T09:46:24.804Z,16.6
2022-10-02T09:47:24.803Z,16.6
2022-10-02T09:48:24.810Z,16.7
2022-10-02T09:49:24.807Z,16.8
2022-10-02T09:50:24.826Z,16.9
2022-10-02T09:51:24.807Z,16.8
2022-10-02T09:52:24.811Z,16.9
2022-10-02T09:53:24.803Z,17
2022-10-02T09:54:24.803Z,16.8
2022-10-02T09:55:24.803Z,16.8
2022-10-02T09:56:24.806Z,16.9
2022-10-02T09:57:24.810Z,17
2022-10-02T09:58:24.847Z,17
2022-10-02T09:59:24.806Z,17
2022-10-02T10:00:24.804Z,16.9
2022-10-02T10:01:24.904Z,16.9
2022-10-02T10:02:25.913Z,16.9
2022-10-02T10:03:24.816Z,17
2022-10-02T10:04:24.811Z,17.1
2022-10-02T10:05:24.810Z,17.4
2022-10-02T10:06:24.800Z,17.4
2022-10-02T10:07:24.818Z,17.4
2022-10-02T10:08:24.812Z,17.5
2022-10-02T10:09:24.812Z,17.6
2022-10-02T10:10:24.817Z,17.7
2022-10-02T10:11:24.813Z,17.7
2022-10-02T10:12:24.815Z,17.6
2022-10-02T10:13:24.809Z,17.4
2022-10-02T10:14:24.809Z,17.5
2022-10-02T10:15:24.815Z,17.6
2022-10-02T10:16:24.878Z,17.5
2022-10-02T10:17:24.818Z,17.7
2022-10-02T10:18:24.815Z,17.4
2022-10-02T10:19:24.813Z,17.4
2022-10-02T10:20:24.814Z,17.4
2022-10-02T10:21:30.005Z,17.6
2022-10-02T10:22:24.821Z,17.5
2022-10-02T10:23:24.820Z,17.4
2022-10-02T10:24:24.814Z,17.4
2022-10-02T10:25:24.816Z,17.4
2022-10-02T10:26:24.814Z,17.5
2022-10-02T10:27:24.810Z,17.4
2022-10-02T10:28:24.870Z,17.5
2022-10-02T10:29:24.818Z,17.4
2022-10-02T10:30:24.824Z,17.6
2022-10-02T10:31:24.964Z,17.7
2022-10-02T10:32:24.847Z,17.6
2022-10-02T10:33:24.823Z,17.6
2022-10-02T10:34:24.821Z,17.5
2022-10-02T10:35:24.821Z,17.2
2022-10-02T10:36:24.822Z,17.3
2022-10-02T10:37:24.886Z,17.3
2022-10-02T10:38:24.820Z,17.3
2022-10-02T10:39:24.824Z,17.3
2022-10-02T10:40:24.826Z,17.5
2022-10-02T10:41:24.829Z,17.5
2022-10-02T10:42:24.821Z,17.4
2022-10-02T10:43:24.818Z,17.4
2022-10-02T10:44:24.825Z,17.5
2022-10-02T10:45:24.867Z,17.4
2022-10-02T10:46:24.815Z,17.5
2022-10-02T10:47:24.823Z,17.7
2022-10-02T10:48:24.826Z,17.8
2022-10-02T10:49:24.816Z,17.5
2022-10-02T10:50:24.830Z,17.5
2022-10-02T10:51:24.823Z,17.5
2022-10-02T10:52:24.822Z,17.5
2022-10-02T10:53:24.829Z,17.6
2022-10-02T10:54:24.831Z,17.5
2022-10-02T10:55:24.823Z,17.4
2022-10-02T10:56:24.832Z,17.6
2022-10-02T10:57:24.823Z,17.5
2022-10-02T10:58:24.830Z,17.5
2022-10-02T10:59:25.605Z,17.5
2022-10-02T11:00:24.823Z,17.4
2022-10-02T11:01:24.852Z,17.4
2022-10-02T11:02:24.867Z,17.7
2022-10-02T11:03:24.851Z,17.9
2022-10-02T11:04:24.823Z,18.1
2022-10-02T11:05:24.836Z,18.1
2022-10-02T11:06:24.833Z,18.1
2022-10-02T11:07:24.836Z,18.3
2022-10-02T11:08:24.831Z,18.6
2022-10-02T11:09:24.828Z,18.5
2022-10-02T11:10:24.835Z,18.2
2022-10-02T11:11:24.831Z,18.3
2022-10-02T11:12:24.831Z,18.2
2022-10-02T11:13:24.831Z,18.1
2022-10-02T11:14:24.834Z,18
2022-10-02T11:15:24.834Z,18
2022-10-02T11:16:24.904Z,17.7
2022-10-02T11:17:24.835Z,17.7
2022-10-02T11:18:24.841Z,17.8
2022-10-02T11:19:24.839Z,17.9
2022-10-02T11:20:24.836Z,18.2
2022-10-02T11:21:24.849Z,18.5
2022-10-02T11:22:24.836Z,18.7
2022-10-02T11:23:24.837Z,19.1
2022-10-02T11:24:24.835Z,19.2
2022-10-02T11:25:24.836Z,19.2
2022-10-02T11:26:24.840Z,19.6
2022-10-02T11:27:24.857Z,19.6
2022-10-02T11:28:24.896Z,19.7
2022-10-02T11:29:24.839Z,19.7
2022-10-02T11:30:24.856Z,19.7
2022-10-02T11:31:24.904Z,19.5
2022-10-02T11:32:24.850Z,19.5
2022-10-02T11:33:24.846Z,19.1
2022-10-02T11:34:24.865Z,19
2022-10-02T11:35:24.842Z,18.9
2022-10-02T11:36:24.845Z,18.9
2022-10-02T11:37:24.843Z,18.9
2022-10-02T11:38:24.844Z,18.9
2022-10-02T11:39:24.836Z,18.9
2022-10-02T11:40:24.923Z,18.9
2022-10-02T11:41:24.850Z,19
2022-10-02T11:42:24.840Z,19.1
2022-10-02T11:43:24.854Z,19
2022-10-02T11:44:24.836Z,18.9
2022-10-02T11:45:24.849Z,18.8
2022-10-02T11:46:24.845Z,18.7
2022-10-02T11:47:24.851Z,18.7
2022-10-02T11:48:24.848Z,18.6
2022-10-02T11:49:24.856Z,18.8
2022-10-02T11:50:24.850Z,18.8
2022-10-02T11:51:24.845Z,18.9
2022-10-02T11:52:24.861Z,19
2022-10-02T11:53:24.845Z,19
2022-10-02T11:54:24.842Z,19.2
2022-10-02T11:55:24.852Z,19.3
2022-10-02T11:56:24.858Z,19.5
2022-10-02T11:57:24.852Z,19.4
2022-10-02T11:58:24.845Z,19.5
2022-10-02T11:59:24.851Z,19.4
2022-10-02T12:00:24.848Z,19.7
2022-10-02T12:01:24.849Z,19.5
2022-10-02T12:02:24.941Z,19.4
2022-10-02T12:03:25.053Z,19.5
2022-10-02T12:04:24.848Z,19.6
2022-10-02T12:05:24.935Z,19.5
2022-10-02T12:06:24.869Z,19.4
2022-10-02T12:07:24.849Z,19.3
2022-10-02T12:08:24.885Z,19.3
2022-10-02T12:09:24.850Z,19.3
2022-10-02T12:10:24.860Z,19.3
2022-10-02T12:11:24.861Z,19.4
2022-10-02T12:12:27.844Z,19.2
2022-10-02T12:13:24.853Z,19
2022-10-02T12:14:24.859Z,19.1
2022-10-02T12:15:24.853Z,19.2
2022-10-02T12:16:24.921Z,19
2022-10-02T12:17:24.851Z,19.1
2022-10-02T12:18:24.856Z,19
2022-10-02T12:19:24.855Z,19
2022-10-02T12:20:24.860Z,19
2022-10-02T12:21:24.859Z,19.1
2022-10-02T12:22:24.853Z,18.9
2022-10-02T12:23:24.864Z,19
2022-10-02T12:24:24.857Z,19.2
2022-10-02T12:25:24.852Z,19.2
2022-10-02T12:26:24.865Z,19.1
2022-10-02T12:27:24.859Z,19.2
2022-10-02T12:29:24.858Z,19
2022-10-02T12:30:24.866Z,18.9
2022-10-02T12:31:24.911Z,19.1
2022-10-02T12:32:24.875Z,18.9
2022-10-02T12:33:24.879Z,18.9
2022-10-02T12:34:24.860Z,19
2022-10-02T12:35:24.859Z,19
2022-10-02T12:36:24.891Z,19
2022-10-02T12:37:24.945Z,19.3
2022-10-02T12:38:24.866Z,19.3
2022-10-02T12:39:24.860Z,19.3
2022-10-02T12:40:24.870Z,19.1
2022-10-02T12:41:24.872Z,18.9
2022-10-02T12:42:24.933Z,18.7
2022-10-02T12:43:24.864Z,18.7
2022-10-02T12:44:24.862Z,18.6
2022-10-02T12:45:24.868Z,18.6
2022-10-02T12:46:24.880Z,18.6
2022-10-02T12:47:24.863Z,18.7
2022-10-02T12:48:24.863Z,18.8
2022-10-02T12:50:24.872Z,18.6
2022-10-02T12:51:24.861Z,18.6
2022-10-02T12:52:24.878Z,18.6
2022-10-02T12:53:24.865Z,18.5
2022-10-02T12:54:24.864Z,18.6
2022-10-02T12:55:24.875Z,18.6
2022-10-02T12:56:24.874Z,18.6
2022-10-02T12:57:24.871Z,18.6
2022-10-02T12:58:24.871Z,18.4
2022-10-02T12:59:24.867Z,18.5
2022-10-02T13:00:24.867Z,18.4
2022-10-02T13:01:24.943Z,18.3
2022-10-02T13:02:37.522Z,18.5
2022-10-02T13:03:24.891Z,18.4
2022-10-02T13:04:24.869Z,18.4
2022-10-02T13:05:24.869Z,18.2
2022-10-02T13:06:24.873Z,18.2
2022-10-02T13:07:24.901Z,18.2
2022-10-02T13:08:24.872Z,18.2
2022-10-02T13:09:29.194Z,18.2
2022-10-02T13:11:24.881Z,18.4
2022-10-02T13:12:24.872Z,18.3
2022-10-02T13:13:24.886Z,18.3
2022-10-02T13:14:24.887Z,18.3
2022-10-02T13:15:24.881Z,18.2
2022-10-02T13:16:24.971Z,18.1
2022-10-02T13:17:24.874Z,18.2
2022-10-02T13:18:24.875Z,18
2022-10-02T13:20:24.881Z,18
2022-10-02T13:21:24.879Z,18
2022-10-02T13:22:24.873Z,18
2022-10-02T13:23:24.875Z,18.1
2022-10-02T13:24:24.883Z,18.3
2022-10-02T13:25:24.875Z,18.4
2022-10-02T13:26:24.875Z,18.5
2022-10-02T13:27:28.224Z,18.5
2022-10-02T13:28:24.963Z,18.5
2022-10-02T13:29:24.872Z,18.5
2022-10-02T13:30:24.897Z,18.4
2022-10-02T13:31:24.944Z,18.3
2022-10-02T13:32:24.878Z,18.1
2022-10-02T13:33:24.887Z,18
2022-10-02T13:34:24.890Z,18
2022-10-02T13:35:24.879Z,18.1
2022-10-02T13:36:24.885Z,18.2
2022-10-02T13:37:24.888Z,18.3
2022-10-02T13:38:24.912Z,18.2
2022-10-02T13:39:24.955Z,18.1